Time;durP1;ratioP1;P1;durP2;ratioP2;P2;SDS_P1;SDS_P2;PMS_P1;PMS_P2;Temp;Humidity;BMP_temperature;BMP_pressure;BME280_temperature;BME280_humidity;BME280_pressure;Samples;Min_cycle;Max_cycle;Signal;HPM_P1;HPM_P2
2022/12/04 00:00:54;;;;;;;88.83;33.63;;;2.90;99.90;;;;;;5053242;28;20270;-71
2022/12/04 00:03:43;;;;;;;80.53;33.27;;;3.00;99.90;;;;;;5037596;28;20220;-71
2022/12/04 00:06:33;;;;;;;88.80;33.53;;;2.90;99.90;;;;;;5050336;28;20223;-71
2022/12/04 00:09:22;;;;;;;86.20;33.17;;;3.00;99.90;;;;;;5058033;28;20227;-69
2022/12/04 00:12:11;;;;;;;87.37;34.23;;;2.90;99.90;;;;;;5057314;28;20230;-71
2022/12/04 00:14:59;;;;;;;93.37;35.00;;;2.60;99.90;;;;;;5040238;28;20232;-70
2022/12/04 00:18:08;;;;;;;87.37;33.20;;;2.50;99.90;;;;;;5041961;28;20393;-70
2022/12/04 00:20:56;;;;;;;87.53;33.43;;;2.60;99.90;;;;;;5042425;28;20238;-70
2022/12/04 00:23:47;;;;;;;85.73;32.93;;;2.60;99.90;;;;;;5055769;28;20230;-71
2022/12/04 00:26:35;;;;;;;85.87;31.97;;;2.60;99.90;;;;;;5055707;28;20314;-68
2022/12/04 00:29:24;;;;;;;73.57;31.23;;;2.70;99.90;;;;;;5059358;28;20230;-70
2022/12/04 00:32:12;;;;;;;84.50;33.27;;;2.60;99.90;;;;;;5055981;28;20255;-72
2022/12/04 00:35:01;;;;;;;85.73;34.90;;;2.60;99.90;;;;;;5041155;28;20240;-71
2022/12/04 00:37:49;;;;;;;93.83;33.07;;;2.60;99.90;;;;;;5055743;28;20261;-71
2022/12/04 00:40:40;;;;;;;96.73;34.27;;;2.70;99.90;;;;;;5036295;28;20227;-70
2022/12/04 00:43:30;;;;;;;97.37;36.63;;;2.60;99.90;;;;;;5040844;28;20231;-69
2022/12/04 00:46:19;;;;;;;95.13;35.63;;;2.50;99.90;;;;;;5057013;28;20736;-71
2022/12/04 00:49:07;;;;;;;86.53;34.43;;;2.60;99.90;;;;;;5039493;28;20257;-70
2022/12/04 00:51:56;;;;;;;93.50;36.13;;;2.60;99.90;;;;;;5042753;28;20226;-70
2022/12/04 00:54:44;;;;;;;99.40;36.57;;;2.60;99.90;;;;;;5034097;28;20219;-72
2022/12/04 00:57:35;;;;;;;90.57;35.73;;;2.80;99.90;;;;;;5036503;28;20225;-71
2022/12/04 01:00:24;;;;;;;89.03;35.83;;;2.80;99.90;;;;;;5052184;28;20563;-71
2022/12/04 01:03:12;;;;;;;87.57;34.63;;;2.80;99.90;;;;;;5056573;28;20782;-70
2022/12/04 01:06:02;;;;;;;84.10;35.10;;;2.80;99.90;;;;;;5037010;28;20242;-70
2022/12/04 01:08:52;;;;;;;86.00;35.03;;;2.90;99.90;;;;;;5045794;28;20234;-71
2022/12/04 01:11:40;;;;;;;82.53;34.30;;;2.70;99.90;;;;;;5051651;28;20210;-71
2022/12/04 01:14:30;;;;;;;83.57;34.40;;;2.60;99.90;;;;;;5040831;28;20670;-69
2022/12/04 01:17:19;;;;;;;86.90;33.87;;;2.70;99.90;;;;;;5042438;28;21012;-68
2022/12/04 01:20:08;;;;;;;90.27;35.17;;;2.70;99.90;;;;;;5053476;28;20230;-70
2022/12/04 01:22:56;;;;;;;86.43;34.50;;;2.60;99.90;;;;;;5059566;28;20257;-67
2022/12/04 01:25:51;;;;;;;91.70;34.27;;;2.80;99.90;;;;;;5038973;28;20279;-71
2022/12/04 01:28:40;;;;;;;88.37;32.93;;;2.70;99.90;;;;;;5042686;28;23118;-70
2022/12/04 01:31:31;;;;;;;83.10;33.80;;;2.80;99.90;;;;;;5051852;28;20228;-71
2022/12/04 01:34:19;;;;;;;93.77;34.97;;;2.50;99.90;;;;;;5055095;28;20307;-71
2022/12/04 01:37:08;;;;;;;89.87;34.77;;;2.70;99.90;;;;;;5039060;28;20213;-71
2022/12/04 01:39:57;;;;;;;87.00;34.20;;;2.70;99.90;;;;;;5039558;28;20236;-71
2022/12/04 01:42:46;;;;;;;85.13;33.50;;;2.70;99.90;;;;;;5043120;28;20234;-70
2022/12/04 01:45:39;;;;;;;81.70;33.10;;;2.80;99.90;;;;;;5062275;28;20219;-69
2022/12/04 01:48:31;;;;;;;75.93;32.47;;;2.90;99.90;;;;;;5062819;28;20293;-70
2022/12/04 01:51:24;;;;;;;73.50;32.37;;;2.70;99.90;;;;;;5066723;28;20217;-68
2022/12/04 01:54:18;;;;;;;74.50;32.70;;;2.70;99.90;;;;;;5043070;28;20251;-67
2022/12/04 01:57:11;;;;;;;68.80;31.37;;;2.70;99.90;;;;;;5041028;28;20231;-70
2022/12/04 02:00:05;;;;;;;69.00;30.60;;;2.70;99.90;;;;;;5061034;28;20219;-70
2022/12/04 02:02:54;;;;;;;71.50;30.53;;;2.60;99.90;;;;;;5055654;28;20606;-69
2022/12/04 02:05:44;;;;;;;68.47;28.50;;;2.60;99.90;;;;;;5058840;28;20338;-70
2022/12/04 02:08:35;;;;;;;67.23;29.43;;;2.70;99.90;;;;;;5061122;28;20913;-69
2022/12/04 02:11:30;;;;;;;66.03;28.17;;;2.80;99.90;;;;;;5042389;28;20572;-70
2022/12/04 02:14:30;;;;;;;66.33;29.73;;;2.80;99.90;;;;;;5059820;28;20224;-70
2022/12/04 02:17:27;;;;;;;68.97;29.73;;;2.80;99.90;;;;;;5055822;28;20243;-72
2022/12/04 02:20:24;;;;;;;72.77;30.07;;;2.90;99.90;;;;;;5041072;28;20254;-70
2022/12/04 02:23:46;;;;;;;65.20;28.57;;;2.90;99.90;;;;;;5059022;28;20393;-70
2022/12/04 02:26:42;;;;;;;75.33;29.63;;;2.80;99.90;;;;;;5055392;28;20227;-71
2022/12/04 02:29:40;;;;;;;67.87;28.57;;;2.60;99.90;;;;;;5057371;28;20748;-69
2022/12/04 02:32:35;;;;;;;71.70;28.93;;;2.70;99.90;;;;;;5058726;28;20227;-70
2022/12/04 02:35:28;;;;;;;67.00;28.60;;;2.70;99.90;;;;;;5040096;28;20227;-70
2022/12/04 02:38:23;;;;;;;68.03;28.47;;;2.90;99.90;;;;;;5040671;28;20262;-71
2022/12/04 02:41:16;;;;;;;68.80;29.43;;;2.60;99.90;;;;;;5050004;28;20235;-70
2022/12/04 02:44:10;;;;;;;69.70;29.43;;;2.70;99.90;;;;;;5055449;28;20232;-71
2022/12/04 02:47:04;;;;;;;71.37;29.00;;;2.70;99.90;;;;;;5037967;28;20220;-71
2022/12/04 02:49:56;;;;;;;69.53;28.87;;;2.70;99.90;;;;;;5056979;28;20749;-71
2022/12/04 02:52:49;;;;;;;73.93;30.90;;;2.80;99.90;;;;;;5053892;28;20713;-71
2022/12/04 02:55:42;;;;;;;74.03;30.33;;;2.60;99.90;;;;;;5046809;28;20317;-71
2022/12/04 02:58:34;;;;;;;69.93;29.80;;;2.60;99.90;;;;;;5059796;28;20227;-69
2022/12/04 03:01:27;;;;;;;68.63;29.53;;;2.60;99.90;;;;;;5040313;28;20244;-71
2022/12/04 03:04:20;;;;;;;74.67;31.23;;;2.60;99.90;;;;;;5048076;28;20239;-71
2022/12/04 03:07:14;;;;;;;73.20;30.27;;;2.50;99.90;;;;;;5038814;28;20776;-71
2022/12/04 03:10:06;;;;;;;68.87;28.23;;;2.50;99.90;;;;;;5055991;28;20231;-70
2022/12/04 03:12:59;;;;;;;80.27;32.43;;;2.40;99.90;;;;;;5055177;28;20232;-71
2022/12/04 03:15:53;;;;;;;71.00;29.13;;;2.40;99.90;;;;;;5055568;28;20260;-71
2022/12/04 03:18:44;;;;;;;71.37;29.97;;;2.60;99.90;;;;;;5039526;28;20235;-70
2022/12/04 03:21:38;;;;;;;77.43;31.20;;;2.40;99.90;;;;;;5061080;28;20219;-71
2022/12/04 03:24:30;;;;;;;75.47;30.53;;;2.30;99.90;;;;;;5056519;28;20338;-71
2022/12/04 03:27:29;;;;;;;69.70;28.93;;;2.50;99.90;;;;;;5057292;28;20231;-72
2022/12/04 03:30:20;;;;;;;71.27;29.60;;;2.50;99.90;;;;;;5042480;28;20260;-72
2022/12/04 03:33:13;;;;;;;67.40;28.07;;;2.50;99.90;;;;;;5052860;28;20242;-71
2022/12/04 03:36:09;;;;;;;72.40;30.60;;;2.60;99.90;;;;;;5056142;28;20312;-71
2022/12/04 03:39:08;;;;;;;67.80;27.70;;;2.60;99.90;;;;;;5042148;28;20242;-70
2022/12/04 03:42:01;;;;;;;69.70;29.60;;;2.60;99.90;;;;;;5054896;28;20236;-71
2022/12/04 03:44:58;;;;;;;71.80;29.07;;;2.70;99.90;;;;;;5036967;28;20599;-71
2022/12/04 03:47:53;;;;;;;66.20;28.80;;;2.70;99.90;;;;;;5055546;28;20343;-71
2022/12/04 03:50:47;;;;;;;62.93;28.27;;;2.80;99.90;;;;;;5037343;28;20219;-72
2022/12/04 03:53:39;;;;;;;60.30;25.70;;;2.60;99.90;;;;;;5039690;28;20242;-71
2022/12/04 03:56:32;;;;;;;65.33;26.83;;;2.60;99.90;;;;;;5056699;28;20224;-71
2022/12/04 03:59:27;;;;;;;59.53;25.60;;;2.80;99.90;;;;;;5044405;28;20306;-72
2022/12/04 04:02:19;;;;;;;62.33;27.07;;;2.40;99.90;;;;;;5034690;28;20256;-72
2022/12/04 04:05:11;;;;;;;64.30;27.50;;;2.40;99.90;;;;;;5057653;28;20965;-71
2022/12/04 04:11:10;;;;;;;63.73;25.67;;;2.60;99.90;;;;;;5050619;28;20315;-71
2022/12/04 04:27:03;;;;;;;49.53;23.40;;;2.60;99.90;;;;;;4997051;28;20237;-71
2022/12/04 04:29:53;;;;;;;50.27;23.20;;;2.60;99.90;;;;;;5040458;28;20243;-71
2022/12/04 04:32:48;;;;;;;52.37;23.83;;;2.50;99.90;;;;;;5053863;28;20595;-70
2022/12/04 04:35:43;;;;;;;52.97;24.03;;;2.50;99.90;;;;;;5037543;28;20227;-71
2022/12/04 04:38:39;;;;;;;52.30;23.83;;;2.30;99.90;;;;;;5034639;28;20230;-71
2022/12/04 04:41:35;;;;;;;52.47;24.83;;;2.30;99.90;;;;;;5038048;28;20227;-70
2022/12/04 04:44:29;;;;;;;50.53;22.97;;;2.30;99.90;;;;;;5037983;28;20227;-71
2022/12/04 04:47:27;;;;;;;49.27;23.50;;;2.40;99.90;;;;;;5049453;28;20237;-70
2022/12/04 04:50:17;;;;;;;55.83;24.30;;;2.50;99.90;;;;;;5054682;28;20228;-72
2022/12/04 04:53:10;;;;;;;55.33;25.00;;;2.40;99.90;;;;;;5050556;28;20219;-71
2022/12/04 04:55:59;;;;;;;57.60;24.43;;;2.40;99.90;;;;;;5056835;28;20706;-71
2022/12/04 04:58:47;;;;;;;58.37;25.70;;;2.50;99.90;;;;;;5040639;28;20230;-70
2022/12/04 05:01:38;;;;;;;59.70;24.93;;;2.60;99.90;;;;;;5036313;28;20222;-71
2022/12/04 05:04:28;;;;;;;60.13;26.43;;;2.60;99.90;;;;;;5052524;28;20211;-71
2022/12/04 05:07:16;;;;;;;58.93;24.80;;;2.50;99.90;;;;;;5056525;28;20218;-71
2022/12/04 05:10:06;;;;;;;65.93;27.67;;;2.70;99.90;;;;;;5040012;28;20911;-71
2022/12/04 05:12:54;;;;;;;60.70;26.53;;;2.70;99.90;;;;;;5052213;28;20221;-71
2022/12/04 05:15:43;;;;;;;62.97;27.07;;;2.70;99.90;;;;;;5050498;28;20348;-72
2022/12/04 05:18:33;;;;;;;63.77;27.17;;;2.60;99.90;;;;;;5054559;28;20224;-72
2022/12/04 05:21:22;;;;;;;62.90;27.80;;;2.50;99.90;;;;;;5039241;28;20223;-70
2022/12/04 05:24:10;;;;;;;58.80;26.73;;;2.40;99.90;;;;;;5056727;28;20263;-69
2022/12/04 05:26:59;;;;;;;64.83;27.60;;;2.50;99.90;;;;;;5054065;28;20234;-69
2022/12/04 05:29:47;;;;;;;64.07;27.00;;;2.50;99.90;;;;;;5050136;28;20231;-70
2022/12/04 05:32:36;;;;;;;63.60;26.53;;;2.70;99.90;;;;;;5055957;28;20649;-70
2022/12/04 05:35:24;;;;;;;64.10;28.37;;;2.60;99.90;;;;;;5030073;28;20240;-70
2022/12/04 05:38:14;;;;;;;60.53;26.07;;;2.50;99.90;;;;;;5052889;28;20231;-70
2022/12/04 05:41:05;;;;;;;62.07;26.17;;;2.50;99.90;;;;;;5037575;28;20255;-70
2022/12/04 05:43:54;;;;;;;57.60;25.93;;;2.30;99.90;;;;;;5059267;28;20881;-71
2022/12/04 05:46:42;;;;;;;59.87;26.43;;;2.40;99.90;;;;;;5037324;28;20228;-71
2022/12/04 05:49:31;;;;;;;60.70;25.90;;;2.50;99.90;;;;;;5057488;28;20320;-70
2022/12/04 05:52:20;;;;;;;58.00;26.03;;;2.60;99.90;;;;;;5056841;28;20432;-70
2022/12/04 05:55:10;;;;;;;54.97;24.70;;;2.60;99.90;;;;;;5055423;28;20223;-69
2022/12/04 05:57:58;;;;;;;56.37;25.80;;;2.50;99.90;;;;;;5039742;28;20254;-71
2022/12/04 06:00:47;;;;;;;56.60;24.00;;;2.40;99.90;;;;;;5037209;28;20227;-70
2022/12/04 06:03:35;;;;;;;53.20;24.33;;;2.40;99.90;;;;;;5058756;28;20232;-70
2022/12/04 06:06:25;;;;;;;49.97;24.03;;;2.40;99.90;;;;;;5047587;28;20222;-70
2022/12/04 06:09:14;;;;;;;53.70;23.70;;;2.30;99.90;;;;;;5038977;28;20222;-70
2022/12/04 06:12:04;;;;;;;51.40;23.77;;;2.20;99.90;;;;;;5052421;28;20224;-72
2022/12/04 06:14:53;;;;;;;53.93;24.87;;;2.50;99.90;;;;;;5053982;28;20561;-71
2022/12/04 06:17:41;;;;;;;52.93;24.50;;;2.60;99.90;;;;;;5056441;28;20231;-71
2022/12/04 06:20:30;;;;;;;54.97;24.60;;;2.60;99.90;;;;;;5040741;28;20231;-71
2022/12/04 06:23:18;;;;;;;53.87;23.70;;;2.70;99.90;;;;;;5053808;28;20239;-71
2022/12/04 06:26:08;;;;;;;48.57;23.57;;;2.60;99.90;;;;;;5053065;28;20224;-70
2022/12/04 06:28:59;;;;;;;58.63;25.00;;;2.50;99.90;;;;;;5063922;28;20315;-71
2022/12/04 06:31:48;;;;;;;55.73;26.33;;;2.60;99.90;;;;;;5055554;28;20496;-70
2022/12/04 06:34:36;;;;;;;60.77;27.27;;;2.70;99.90;;;;;;5041732;28;20226;-72
2022/12/04 06:37:26;;;;;;;52.10;25.33;;;2.50;99.90;;;;;;5041624;28;20227;-71
2022/12/04 06:40:14;;;;;;;55.13;25.30;;;2.50;99.90;;;;;;5036072;28;20227;-72
2022/12/04 06:43:03;;;;;;;51.30;24.50;;;2.40;99.90;;;;;;5056409;28;20279;-71
2022/12/04 06:46:01;;;;;;;64.43;26.00;;;2.60;99.90;;;;;;5043529;28;20235;-71
2022/12/04 06:48:50;;;;;;;58.13;24.93;;;2.60;99.90;;;;;;5057137;28;20268;-71
2022/12/04 06:51:39;;;;;;;57.73;26.47;;;2.70;99.90;;;;;;5056357;28;20231;-72
2022/12/04 06:54:28;;;;;;;54.63;24.63;;;2.60;99.90;;;;;;5057002;28;20226;-70
2022/12/04 06:57:16;;;;;;;55.47;26.53;;;2.50;99.90;;;;;;5058943;28;20231;-71
2022/12/04 07:00:06;;;;;;;59.13;26.23;;;2.80;99.90;;;;;;5040342;28;20235;-70
2022/12/04 07:02:57;;;;;;;59.73;27.33;;;2.60;99.90;;;;;;5057569;28;20716;-72
2022/12/04 07:05:45;;;;;;;68.83;27.30;;;2.50;99.90;;;;;;5056174;28;20227;-70
2022/12/04 07:08:34;;;;;;;62.80;27.00;;;2.40;99.90;;;;;;5039244;28;20921;-70
2022/12/04 07:11:22;;;;;;;59.53;27.67;;;2.40;99.90;;;;;;5037059;28;20304;-71
2022/12/04 07:14:13;;;;;;;57.17;26.63;;;2.40;99.90;;;;;;5041847;28;20234;-69
2022/12/04 07:17:01;;;;;;;57.30;26.67;;;2.40;99.90;;;;;;5035853;28;20784;-69
2022/12/04 07:19:52;;;;;;;52.47;25.00;;;2.50;99.90;;;;;;5043743;28;20223;-71
2022/12/04 07:22:40;;;;;;;54.70;25.47;;;2.50;99.90;;;;;;5035621;28;20261;-71
2022/12/04 07:25:30;;;;;;;51.40;24.60;;;2.40;99.90;;;;;;5038484;28;20218;-71
2022/12/04 07:28:18;;;;;;;53.70;25.57;;;2.50;99.90;;;;;;5051687;28;20221;-68
2022/12/04 07:31:08;;;;;;;50.00;23.50;;;2.60;99.90;;;;;;5055897;28;20227;-74
2022/12/04 07:33:58;;;;;;;47.00;24.37;;;2.60;99.90;;;;;;5053717;28;20231;-69
2022/12/04 07:36:48;;;;;;;50.07;24.37;;;2.40;99.90;;;;;;5056082;28;20591;-72
2022/12/04 07:39:36;;;;;;;45.33;23.03;;;2.60;99.90;;;;;;5057104;28;20267;-72
2022/12/04 07:42:25;;;;;;;49.37;24.40;;;2.40;99.90;;;;;;5041556;28;20223;-74
2022/12/04 07:45:14;;;;;;;42.27;22.17;;;2.30;99.90;;;;;;5037422;28;20232;-72
2022/12/04 07:48:02;;;;;;;45.80;23.53;;;2.40;99.90;;;;;;5048577;28;20971;-72
2022/12/04 07:50:51;;;;;;;50.53;24.20;;;2.50;99.90;;;;;;5055068;28;20521;-70
2022/12/04 07:53:41;;;;;;;45.87;23.83;;;2.40;99.90;;;;;;5039201;28;20588;-69
2022/12/04 07:56:30;;;;;;;44.53;24.17;;;2.60;99.90;;;;;;5053710;28;20219;-71
2022/12/04 07:59:19;;;;;;;42.23;23.00;;;2.70;99.90;;;;;;5037256;28;20231;-70
2022/12/04 08:02:07;;;;;;;48.57;24.30;;;2.70;99.90;;;;;;5038830;28;20587;-71
2022/12/04 08:04:56;;;;;;;47.53;24.13;;;2.50;99.90;;;;;;5057320;28;20303;-70
2022/12/04 08:07:45;;;;;;;43.13;23.10;;;2.70;99.90;;;;;;5057075;28;20228;-70
2022/12/04 08:10:34;;;;;;;46.83;24.10;;;2.80;99.90;;;;;;5059932;28;20230;-71
2022/12/04 08:13:23;;;;;;;48.10;24.33;;;2.60;99.90;;;;;;5059902;28;20212;-71
2022/12/04 08:16:13;;;;;;;47.50;24.67;;;2.60;99.90;;;;;;5056462;28;20229;-72
2022/12/04 08:19:02;;;;;;;48.40;24.57;;;2.60;99.90;;;;;;5039549;28;20219;-70
2022/12/04 08:21:50;;;;;;;46.03;23.63;;;2.70;99.90;;;;;;5036933;28;20228;-70
2022/12/04 08:24:39;;;;;;;47.33;23.87;;;2.70;99.90;;;;;;5038413;28;20286;-70
2022/12/04 08:27:29;;;;;;;45.63;24.27;;;2.60;99.90;;;;;;5037363;28;20227;-71
2022/12/04 08:30:18;;;;;;;43.80;23.43;;;2.50;99.90;;;;;;5058102;28;20247;-74
2022/12/04 08:33:06;;;;;;;46.30;24.77;;;2.60;99.90;;;;;;5054082;28;20220;-70
2022/12/04 08:35:55;;;;;;;46.57;24.37;;;2.60;99.90;;;;;;5052970;28;21675;-70
2022/12/04 08:38:43;;;;;;;45.30;24.23;;;2.50;99.90;;;;;;5059308;28;20258;-70
2022/12/04 08:41:32;;;;;;;51.27;26.07;;;2.40;99.90;;;;;;5056296;28;20233;-69
2022/12/04 08:44:26;;;;;;;48.07;23.73;;;2.40;99.90;;;;;;5054534;28;20232;-70
2022/12/04 08:47:14;;;;;;;45.07;24.97;;;2.50;99.90;;;;;;5023225;28;20247;-69
2022/12/04 08:50:03;;;;;;;41.60;22.77;;;2.60;99.90;;;;;;5051802;28;20226;-68
2022/12/04 08:52:51;;;;;;;49.87;24.87;;;2.50;99.90;;;;;;5057683;28;20290;-69
2022/12/04 08:55:40;;;;;;;45.37;25.10;;;2.70;99.90;;;;;;5060969;28;20358;-69
2022/12/04 08:58:28;;;;;;;50.17;25.00;;;2.60;99.90;;;;;;5032844;28;20634;-69
2022/12/04 09:01:19;;;;;;;43.13;22.87;;;2.80;99.90;;;;;;5039291;28;20231;-70
2022/12/04 09:04:07;;;;;;;43.87;24.03;;;2.70;99.90;;;;;;5044789;28;20286;-69
2022/12/04 09:06:56;;;;;;;44.57;23.60;;;2.50;99.90;;;;;;5064162;28;20254;-69
2022/12/04 09:09:44;;;;;;;43.23;21.70;;;2.60;99.90;;;;;;5039465;28;20760;-69
2022/12/04 09:12:36;;;;;;;40.93;22.70;;;2.60;99.90;;;;;;5063049;28;20242;-70
2022/12/04 09:15:24;;;;;;;42.57;22.70;;;2.60;99.90;;;;;;5044625;28;20290;-73
2022/12/04 09:18:14;;;;;;;39.77;21.80;;;2.80;99.90;;;;;;5043764;28;20741;-71
2022/12/04 09:21:05;;;;;;;41.93;22.83;;;2.60;99.90;;;;;;5046921;28;20255;-70
2022/12/04 09:23:54;;;;;;;40.53;21.73;;;2.70;99.90;;;;;;5063060;28;20815;-68
2022/12/04 09:26:42;;;;;;;40.33;22.17;;;2.70;99.90;;;;;;5061004;28;20234;-68
2022/12/04 09:29:32;;;;;;;38.03;21.97;;;2.70;99.90;;;;;;5040976;28;20231;-69
2022/12/04 09:32:21;;;;;;;43.17;22.90;;;2.70;99.90;;;;;;5047299;28;20220;-69
2022/12/04 09:35:10;;;;;;;45.70;23.47;;;2.80;99.90;;;;;;5057735;28;20234;-69
2022/12/04 09:37:59;;;;;;;44.20;22.43;;;2.80;99.90;;;;;;5036726;28;20224;-69
2022/12/04 09:40:58;;;;;;;38.67;21.40;;;2.70;99.90;;;;;;5057811;28;20747;-70
2022/12/04 09:43:52;;;;;;;41.40;21.80;;;2.70;99.90;;;;;;5038864;28;20235;-69
2022/12/04 09:46:46;;;;;;;40.87;22.30;;;2.70;99.90;;;;;;5056776;28;20226;-70
2022/12/04 09:49:41;;;;;;;41.60;22.43;;;2.60;99.90;;;;;;5054332;28;20220;-70
2022/12/04 09:52:46;;;;;;;44.67;23.73;;;2.70;99.90;;;;;;5061856;28;20220;-70
2022/12/04 09:55:38;;;;;;;40.00;22.43;;;2.90;99.90;;;;;;5041740;28;20712;-71
2022/12/04 09:58:32;;;;;;;41.00;23.10;;;2.90;99.90;;;;;;5057442;28;20251;-71
2022/12/04 10:01:27;;;;;;;44.57;23.30;;;3.00;99.90;;;;;;5051580;28;21198;-71
2022/12/04 10:04:16;;;;;;;39.67;22.53;;;3.10;99.90;;;;;;5047977;28;20219;-70
2022/12/04 10:07:09;;;;;;;39.93;22.50;;;3.20;99.90;;;;;;5045572;28;20226;-70
2022/12/04 10:10:06;;;;;;;40.20;22.93;;;3.10;99.90;;;;;;5044063;28;20254;-71
2022/12/04 10:13:04;;;;;;;42.53;23.43;;;3.20;99.90;;;;;;5046928;28;20227;-69
2022/12/04 10:16:01;;;;;;;42.63;21.87;;;3.10;99.90;;;;;;5042132;28;20224;-70
2022/12/04 10:18:57;;;;;;;36.57;22.07;;;3.00;99.90;;;;;;5048171;28;20354;-71
2022/12/04 10:21:58;;;;;;;39.70;24.07;;;2.90;99.90;;;;;;5062841;28;20636;-70
2022/12/04 10:24:51;;;;;;;42.83;23.50;;;3.10;99.90;;;;;;5046083;28;20322;-70
2022/12/04 10:27:48;;;;;;;39.63;23.03;;;3.10;99.90;;;;;;5063405;28;20228;-69
2022/12/04 10:30:37;;;;;;;39.20;23.17;;;3.20;99.90;;;;;;5062648;28;20222;-71
2022/12/04 10:33:35;;;;;;;44.87;24.50;;;3.20;99.90;;;;;;5049899;28;20762;-70
2022/12/04 10:36:30;;;;;;;40.93;24.20;;;3.10;99.90;;;;;;5043801;28;20752;-70
2022/12/04 10:39:24;;;;;;;40.60;24.50;;;3.10;99.90;;;;;;5044816;28;20223;-71
2022/12/04 10:42:24;;;;;;;41.80;24.40;;;3.20;99.90;;;;;;5062967;28;20232;-70
2022/12/04 10:45:14;;;;;;;43.50;24.47;;;3.10;99.90;;;;;;5042672;28;20230;-71
2022/12/04 10:48:03;;;;;;;41.40;24.73;;;3.20;99.90;;;;;;5062399;28;20223;-70
2022/12/04 10:50:51;;;;;;;44.67;24.60;;;3.30;99.90;;;;;;5059890;28;20282;-69
2022/12/04 10:53:40;;;;;;;40.60;23.87;;;3.30;99.90;;;;;;5063304;28;20255;-70
2022/12/04 10:56:28;;;;;;;42.13;24.63;;;3.30;99.90;;;;;;5062054;28;20220;-69
2022/12/04 10:59:17;;;;;;;43.43;25.60;;;3.40;99.90;;;;;;5046761;28;20224;-70
2022/12/04 11:02:19;;;;;;;39.07;24.23;;;3.30;99.90;;;;;;5040881;28;20220;-72
2022/12/04 11:05:24;;;;;;;43.73;24.73;;;3.30;99.90;;;;;;5040582;28;20266;-70
2022/12/04 11:08:23;;;;;;;39.90;24.63;;;2.90;99.90;;;;;;5049498;28;20248;-70
2022/12/04 11:11:14;;;;;;;42.27;24.50;;;3.00;99.90;;;;;;5048871;28;20243;-69
2022/12/04 11:14:17;;;;;;;43.93;25.17;;;3.30;99.90;;;;;;5063477;28;20719;-71
2022/12/04 11:17:07;;;;;;;39.03;23.87;;;3.30;99.90;;;;;;5060868;28;20223;-69
2022/12/04 11:20:03;;;;;;;40.57;24.07;;;3.30;99.90;;;;;;5046699;28;20239;-70
2022/12/04 11:22:55;;;;;;;42.17;25.03;;;3.10;99.90;;;;;;5045647;28;20223;-70
2022/12/04 11:25:47;;;;;;;40.40;23.17;;;3.10;99.90;;;;;;5043602;28;20270;-71
2022/12/04 11:28:39;;;;;;;37.33;22.33;;;3.20;99.90;;;;;;5055361;28;20219;-71
2022/12/04 11:31:31;;;;;;;37.17;22.23;;;3.20;99.90;;;;;;5043321;28;20220;-71
2022/12/04 11:34:24;;;;;;;40.67;23.43;;;3.20;99.90;;;;;;5065564;28;20235;-70
2022/12/04 11:37:20;;;;;;;38.83;23.00;;;3.10;99.90;;;;;;5062510;28;20224;-71
2022/12/04 11:40:18;;;;;;;35.70;21.97;;;3.10;99.90;;;;;;5047197;28;20228;-69
2022/12/04 11:43:14;;;;;;;37.67;23.50;;;3.10;99.90;;;;;;5047299;28;20311;-69
2022/12/04 11:46:05;;;;;;;37.00;22.17;;;3.20;99.90;;;;;;5061257;28;20232;-70
2022/12/04 11:48:53;;;;;;;36.07;21.90;;;3.20;99.90;;;;;;5046546;28;20220;-70
2022/12/04 11:51:52;;;;;;;34.03;21.93;;;3.20;99.90;;;;;;5061406;28;20227;-71
2022/12/04 11:54:53;;;;;;;37.43;23.50;;;3.40;99.90;;;;;;5044223;28;20219;-71
2022/12/04 11:57:49;;;;;;;39.93;23.03;;;3.10;99.90;;;;;;5065547;28;20710;-70
2022/12/04 12:01:09;;;;;;;41.23;25.80;;;3.30;99.90;;;;;;5047529;28;20306;-70
2022/12/04 12:04:17;;;;;;;39.17;24.50;;;3.20;99.90;;;;;;5057043;28;20262;-69
2022/12/04 12:07:20;;;;;;;40.67;23.20;;;3.30;99.90;;;;;;5060948;28;20259;-70
2022/12/04 12:10:17;;;;;;;39.10;23.93;;;3.00;99.90;;;;;;5062929;28;20222;-70
2022/12/04 12:13:13;;;;;;;36.40;22.93;;;3.10;99.90;;;;;;5044591;28;20639;-71
2022/12/04 12:16:12;;;;;;;40.07;23.10;;;3.10;99.90;;;;;;5044055;28;20227;-71
2022/12/04 12:19:29;;;;;;;44.93;24.93;;;3.10;99.90;;;;;;5043394;28;20322;-69
2022/12/04 12:22:31;;;;;;;43.90;24.33;;;3.00;99.90;;;;;;5044129;28;20275;-70
2022/12/04 12:25:24;;;;;;;39.10;23.77;;;3.20;99.90;;;;;;5057809;28;20227;-69
2022/12/04 12:28:23;;;;;;;40.10;23.73;;;3.40;99.90;;;;;;5045566;28;20249;-70
2022/12/04 12:31:29;;;;;;;37.37;23.60;;;3.30;99.90;;;;;;5059624;28;20239;-71
2022/12/04 12:34:27;;;;;;;36.63;22.60;;;3.20;99.90;;;;;;5051833;28;20319;-70
2022/12/04 12:37:24;;;;;;;38.57;23.80;;;3.10;99.90;;;;;;5042153;28;20223;-70
2022/12/04 12:40:21;;;;;;;38.47;23.93;;;3.00;99.90;;;;;;5059759;28;20231;-69
2022/12/04 12:43:15;;;;;;;37.10;22.33;;;3.00;99.90;;;;;;5046707;28;20227;-71
2022/12/04 12:46:09;;;;;;;40.90;23.63;;;3.00;99.90;;;;;;5048675;28;20232;-70
2022/12/04 12:49:02;;;;;;;39.83;23.63;;;3.10;99.90;;;;;;5062063;28;20366;-70
2022/12/04 12:51:56;;;;;;;42.13;24.47;;;3.30;99.90;;;;;;5059134;28;20231;-70
2022/12/04 12:54:52;;;;;;;39.13;23.67;;;3.20;99.90;;;;;;5057722;28;20231;-71
2022/12/04 12:57:44;;;;;;;38.47;23.37;;;3.30;99.90;;;;;;5061657;28;20220;-72
2022/12/04 13:00:39;;;;;;;42.87;23.90;;;3.10;99.90;;;;;;5057637;28;20230;-72
2022/12/04 13:03:37;;;;;;;42.50;23.70;;;3.30;99.90;;;;;;5057605;28;20263;-72
2022/12/04 13:06:31;;;;;;;40.90;24.10;;;3.20;99.90;;;;;;5039090;28;20231;-70
2022/12/04 13:09:25;;;;;;;39.07;24.20;;;3.20;99.90;;;;;;5042169;28;20737;-70
2022/12/04 13:12:16;;;;;;;40.10;23.97;;;3.20;99.90;;;;;;5059291;28;20223;-70
2022/12/04 13:15:05;;;;;;;46.20;23.93;;;3.20;99.90;;;;;;5058983;28;20215;-71
2022/12/04 13:17:57;;;;;;;43.40;25.43;;;3.20;99.90;;;;;;5060726;28;20231;-70
2022/12/04 13:20:52;;;;;;;37.93;24.17;;;3.20;99.90;;;;;;5051733;28;20223;-71
2022/12/04 13:23:51;;;;;;;43.33;24.23;;;3.10;99.90;;;;;;5033063;28;20231;-69
2022/12/04 13:26:50;;;;;;;43.53;25.97;;;3.10;99.90;;;;;;5061749;28;20242;-70
2022/12/04 13:29:54;;;;;;;44.27;26.17;;;3.40;99.90;;;;;;5041148;28;20251;-70
2022/12/04 13:33:16;;;;;;;44.87;25.20;;;3.10;99.90;;;;;;5046479;28;20214;-69
2022/12/04 13:36:43;;;;;;;44.30;24.77;;;3.00;99.90;;;;;;5045365;28;20228;-72
2022/12/04 13:40:03;;;;;;;42.67;24.67;;;3.10;99.90;;;;;;5028774;28;20245;-70
2022/12/04 13:42:52;;;;;;;44.23;25.03;;;2.90;99.90;;;;;;5043343;28;20223;-69
2022/12/04 13:45:44;;;;;;;46.67;25.30;;;2.90;99.90;;;;;;5062270;28;20232;-71
2022/12/04 13:48:38;;;;;;;43.30;25.00;;;3.00;99.90;;;;;;5065866;28;20224;-70
2022/12/04 13:51:36;;;;;;;45.17;25.23;;;3.00;99.90;;;;;;5066745;28;20209;-70
2022/12/04 13:54:30;;;;;;;44.70;25.47;;;3.10;99.90;;;;;;5044129;28;20231;-68
2022/12/04 13:57:22;;;;;;;45.23;23.97;;;3.10;99.90;;;;;;5046078;28;20216;-70
2022/12/04 14:00:26;;;;;;;44.03;24.33;;;3.20;99.90;;;;;;5052539;28;20228;-71
2022/12/04 14:03:25;;;;;;;42.17;24.17;;;3.40;99.90;;;;;;5049016;28;20220;-70
2022/12/04 14:06:22;;;;;;;43.37;22.77;;;3.20;99.90;;;;;;5062661;28;20235;-72
2022/12/04 14:09:22;;;;;;;40.73;23.07;;;3.20;99.90;;;;;;5042915;28;20696;-71
2022/12/04 14:12:14;;;;;;;37.27;22.13;;;3.30;99.90;;;;;;5064398;28;20243;-71
2022/12/04 14:15:06;;;;;;;40.10;22.83;;;3.30;99.90;;;;;;5040691;28;20733;-70
2022/12/04 14:18:01;;;;;;;39.90;24.07;;;3.20;99.90;;;;;;5056205;28;20618;-70
2022/12/04 14:21:00;;;;;;;36.23;22.50;;;3.10;99.90;;;;;;5052049;28;20226;-71
2022/12/04 14:23:49;;;;;;;35.87;21.13;;;3.10;99.90;;;;;;5058835;28;20231;-69
2022/12/04 14:26:49;;;;;;;35.80;22.17;;;3.10;99.90;;;;;;5048699;28;20737;-71
2022/12/04 14:29:59;;;;;;;33.80;21.57;;;3.10;99.90;;;;;;5053036;28;20278;-70
2022/12/04 14:32:50;;;;;;;36.13;22.17;;;3.20;99.90;;;;;;5053930;28;20225;-69
2022/12/04 14:35:46;;;;;;;33.20;21.23;;;3.10;99.90;;;;;;5024842;28;20912;-72
2022/12/04 14:38:36;;;;;;;40.27;22.17;;;3.30;99.90;;;;;;5028309;28;20220;-73
2022/12/04 14:41:26;;;;;;;34.57;22.67;;;3.30;99.90;;;;;;5054072;28;20527;-71
2022/12/04 14:44:25;;;;;;;34.97;22.10;;;3.30;99.90;;;;;;5052704;28;20252;-70
2022/12/04 14:47:23;;;;;;;36.50;22.00;;;3.20;99.90;;;;;;5055767;28;20244;-72
2022/12/04 14:50:23;;;;;;;36.00;22.50;;;3.30;99.90;;;;;;5050589;28;20956;-71
2022/12/04 14:53:20;;;;;;;34.17;21.03;;;3.20;99.90;;;;;;5049202;28;20231;-70
2022/12/04 14:56:31;;;;;;;35.73;22.33;;;3.20;99.90;;;;;;5032419;28;20258;-71
2022/12/04 14:59:22;;;;;;;38.90;23.40;;;3.00;99.90;;;;;;5024746;28;20813;-71
2022/12/04 15:02:15;;;;;;;36.80;22.23;;;3.10;99.90;;;;;;5033561;28;20228;-71